Terminal Aerodrome Forecast
Issued by NWS Pocatello, ID

Home | Current Version | Previous Version | Text Only | Print | Product List | Glossary On
Versions: 1 2 3 4 5 6 7 8 9 10 11 12 13 14 15 16 17 18 19
431
FTUS45 KPIH 250634 AAA
TAFIDA
TAF AMD
KIDA 250634Z 2507/2606 21011G19KT P6SM -SHRA OVC015
     FM251000 23015G25KT P6SM -SHRA BKN020 OVC030
     FM251900 24014G24KT P6SM SCT020 OVC060
     FM260300 21011KT P6SM OVC100=

USA.gov is the U.S. government's official web portal to all federal, state and local government web resources and services.